Boris Syromyatnikov — UCUF — position and weather

sailwx.info

Track history (hours):
 
Tides and Currents Weather Stations Pressure Air Temp Water Temp Dewpoint Dewpoint Depression Visibility Wind Speed Wind Dir Waves Ship Positions

Boris Syromyatnikov

Last reported at 2014-Aug-19 19:33 UTC. Time now 2014-Aug-23 15:21 UTC.
Position N 66°02' W 002°33'.

Length 120 m; beam 19 m.

Type: Fishing. MMSI: 273529800.

Date/timePositionNaut miles runAvg speedWind from/ knotsBaromVisibWave heightAir tempDewpointWater temp
2014-Aug-19 19:33N 66°02' W 002°33'3 3.0
2014-Aug-19 18:30N 66°05' W 002°33'4 4.7
2014-Aug-19 17:33N 66°10' W 002°33'8 8.0
2014-Aug-19 16:33N 66°02' W 002°30'1 0.8
2014-Aug-19 15:33N 66°01' W 002°28'5 4.4
2014-Aug-19 14:30N 66°06' W 002°28'5 5.2
2014-Aug-19 13:33N 66°01' W 002°29'8 8.2
2014-Aug-19 12:33N 65°53' W 002°30'4 4.1
2014-Aug-19 11:33N 65°49' W 002°27'3 2.9
2014-Aug-19 10:30N 65°51' W 002°21'4 4.4
2014-Aug-19 09:33N 65°54' W 002°16'5 4.6
2014-Aug-19 08:30N 65°59' W 002°16'0 0.3
2014-Aug-19 07:30N 65°59' W 002°17'6 6.3
2014-Aug-19 06:33N 65°53' W 002°15'9 8.6
2014-Aug-19 05:33N 65°45' W 002°16'8 8.1
2014-Aug-19 04:33N 65°37' W 002°16'1 0.9
2014-Aug-19 03:33N 65°37' W 002°15'4 4.4
2014-Aug-19 02:33N 65°42' W 002°12'3 2.6
2014-Aug-19 01:33N 65°44' W 002°12'9 9.2
2014-Aug-19 00:33N 65°35' W 002°15'1010.3
2014-Aug-18 23:33N 65°25' W 002°20'6 6.0
2014-Aug-18 22:33N 65°20' W 002°13'4 3.8
2014-Aug-18 21:27N 65°20' W 002°03'5 4.8
2014-Aug-18 20:27N 65°22' W 001°53'5 4.7
2014-Aug-18 19:27N 65°26' W 001°48'5 4.5
2014-Aug-18 18:24N 65°30' W 001°42'4 4.6
2014-Aug-18 17:33N 65°34' W 001°38'4 3.6
2014-Aug-18 16:33N 65°30' W 001°40'6 6.5
2014-Aug-18 15:33N 65°24' W 001°45'1 1.2
2014-Aug-18 14:33N 65°25' W 001°47'4 3.9
2014-Aug-18 13:33N 65°27' W 001°40'4 4.3
2014-Aug-18 12:33N 65°31' W 001°35'4 4.3
2014-Aug-18 11:33N 65°35' W 001°30'5 5.2
2014-Aug-18 10:33N 65°30' W 001°31'8 7.7
2014-Aug-18 09:30N 65°22' W 001°29'2 2.1
2014-Aug-18 08:33N 65°24' W 001°27'4 4.4
2014-Aug-18 07:33N 65°28' W 001°22'4 4.5
2014-Aug-18 06:33N 65°32' W 001°21'4 4.4
2014-Aug-18 05:33N 65°35' W 001°13'5 4.5
2014-Aug-18 04:33N 65°38' W 001°04'4 3.9
2014-Aug-18 03:33N 65°42' W 001°02'7 7.4
2014-Aug-18 02:33N 65°37' W 000°47'2 2.4
2014-Aug-18 01:33N 65°35' W 000°44'5 4.3
2014-Aug-18 00:30N 65°39' W 000°37'20 3.3
2014-Aug-17 18:30N 65°58' W 000°22'250 5.6
2014-Aug-15 22:04N 62°48' W 006°38'713.6
2014-Aug-15 21:33N 62°42' W 006°42'1413.8
2014-Aug-15 20:34N 62°28' W 006°50'1212.2
2014-Aug-15 19:33N 62°16' W 006°46'2 2.5
2014-Aug-15 18:33N 62°14' W 006°48'0 0.0
2014-Aug-15 17:33N 62°14' W 006°48'0 0.0
2014-Aug-15 16:33N 62°14' W 006°48'0 0.4
2014-Aug-15 15:33N 62°14' W 006°47'3 2.7
2014-Aug-15 14:33N 62°13' W 006°42'6 6.0
2014-Aug-15 13:32N 62°08' W 006°34'6 5.7
2014-Aug-15 12:33N 62°03' W 006°37'5 5.1
2014-Aug-15 11:33N 62°07' W 006°45'0 0.4
2014-Aug-15 10:32N 62°07' W 006°44'0 0.0
2014-Aug-15 09:32N 62°07' W 006°44'0 0.0
2014-Aug-15 08:32N 62°07' W 006°44'0 0.0
2014-Aug-15 07:32N 62°07' W 006°44'0 0.0
2014-Aug-15 06:32N 62°07' W 006°44'0 0.0
2014-Aug-15 05:32N 62°07' W 006°44'0 0.0
2014-Aug-15 04:32N 62°07' W 006°44'0 0.0
2014-Aug-15 03:32N 62°07' W 006°44'0 0.0
2014-Aug-15 02:32N 62°07' W 006°44'0 0.0
2014-Aug-15 01:32N 62°07' W 006°44'0 0.0
2014-Aug-15 00:32N 62°07' W 006°44'0 0.0
2014-Aug-14 23:32N 62°07' W 006°44'0 0.0
2014-Aug-14 22:32N 62°07' W 006°44'0 0.0
2014-Aug-14 21:26N 62°07' W 006°44'0 0.0
2014-Aug-14 20:32N 62°07' W 006°44'0 0.0
2014-Aug-14 19:32N 62°07' W 006°44'0 0.0
2014-Aug-14 18:32N 62°07' W 006°44'0 0.0
2014-Aug-14 17:32N 62°07' W 006°44'0 0.0
2014-Aug-14 16:29N 62°07' W 006°44'0 0.0
2014-Aug-14 15:32N 62°07' W 006°44'0 0.0
2014-Aug-14 14:32N 62°07' W 006°44'0 0.0
2014-Aug-14 13:32N 62°07' W 006°44'0 0.0
2014-Aug-14 12:32N 62°07' W 006°44'0 0.0
2014-Aug-14 11:32N 62°07' W 006°44'0 0.4
2014-Aug-14 10:32N 62°07' W 006°44'4 4.5
2014-Aug-14 09:34N 62°03' W 006°40'6 6.4
2014-Aug-14 08:33N 62°09' W 006°34'5 4.8
2014-Aug-14 07:33N 62°13' W 006°39'4 4.2
2014-Aug-14 06:33N 62°14' W 006°48'0 0.1
2014-Aug-14 05:33N 62°14' W 006°48'0 0.0
2014-Aug-14 04:33N 62°14' W 006°48'0 0.0
2014-Aug-14 03:33N 62°14' W 006°48'0 0.0
2014-Aug-14 02:33N 62°14' W 006°48'0 0.0
2014-Aug-14 01:30N 62°14' W 006°48'0 0.0
2014-Aug-14 00:33N 62°14' W 006°48'0 0.0
2014-Aug-13 23:33N 62°14' W 006°48'0 0.0
2014-Aug-13 22:33N 62°14' W 006°48'0 0.0
2014-Aug-13 21:33N 62°14' W 006°48'0 0.0
2014-Aug-13 20:33N 62°14' W 006°48'0 0.0
2014-Aug-13 19:33N 62°14' W 006°48'0 0.0
2014-Aug-13 18:33N 62°14' W 006°48'0 0.0
2014-Aug-13 17:33N 62°14' W 006°48'0 0.0
2014-Aug-13 16:33N 62°14' W 006°48'5 4.8
2014-Aug-13 15:33N 62°13' W 006°38'9 9.2
2014-Aug-13 14:34N 62°05' W 006°28'6 5.7
2014-Aug-13 13:33N 62°03' W 006°39'7 6.9
2014-Aug-13 12:33N 62°09' W 006°46'1 1.0
2014-Aug-13 11:33N 62°10' W 006°47'0 0.0
2014-Aug-13 10:33N 62°10' W 006°47'0 0.0
2014-Aug-13 09:33N 62°10' W 006°47'0 0.0
2014-Aug-13 08:33N 62°10' W 006°47'0 0.0
2014-Aug-13 07:33N 62°10' W 006°47'0 0.0
2014-Aug-13 06:33N 62°10' W 006°47'0 0.0
2014-Aug-13 05:33N 62°10' W 006°47'0 0.0
2014-Aug-13 04:33N 62°10' W 006°47'0 0.0
2014-Aug-13 03:33N 62°10' W 006°47'0 0.0
2014-Aug-13 02:33N 62°10' W 006°47'0 0.0
2014-Aug-13 01:33N 62°10' W 006°47'0 0.0
2014-Aug-13 00:33N 62°10' W 006°47'0 0.0
2014-Aug-12 23:33N 62°10' W 006°47'0 0.0
2014-Aug-12 22:33N 62°10' W 006°47'0 0.0
2014-Aug-12 21:33N 62°10' W 006°47'0 0.0
2014-Aug-12 20:33N 62°10' W 006°47'0 0.0
2014-Aug-12 19:33N 62°10' W 006°47'0 0.0
2014-Aug-12 18:33N 62°10' W 006°47'0 0.0
2014-Aug-12 17:33N 62°10' W 006°47'0 0.0
2014-Aug-12 16:33N 62°10' W 006°47'0 0.0
2014-Aug-12 15:33N 62°10' W 006°47'0 0.0
2014-Aug-12 14:33N 62°10' W 006°47'0 0.0
2014-Aug-12 13:32N 62°10' W 006°47'0 0.0
2014-Aug-12 12:32N 62°10' W 006°47'0 0.0
2014-Aug-12 11:32N 62°10' W 006°47'0 0.0
2014-Aug-12 10:32N 62°10' W 006°47'0 0.0
2014-Aug-12 09:32N 62°10' W 006°47'0 0.0
2014-Aug-12 08:26N 62°10' W 006°47'1 1.2
2014-Aug-12 07:33N 62°09' W 006°46'3 2.7
2014-Aug-12 06:34N 62°06' W 006°45'4 3.7
2014-Aug-12 05:33N 62°03' W 006°43'5 4.7
2014-Aug-12 04:34N 61°58' W 006°42'5 4.8
2014-Aug-12 03:33N 61°54' W 006°37'8 7.8
2014-Aug-12 02:34N 62°00' W 006°28'9 8.7
2014-Aug-12 01:33N 62°08' W 006°18'9 9.0
2014-Aug-12 00:34N 62°16' W 006°08'  
Track history (hours):
 
Tides and Currents Weather Stations Pressure Air Temp Water Temp Dewpoint Dewpoint Depression Visibility Wind Speed Wind Dir Waves Ship Positions

Boris Syromyatnikov

Last reported at 2014-Aug-19 19:33 UTC. Time now 2014-Aug-23 15:21 UTC.
Position N 66°02' W 002°33'.

Length 120 m; beam 19 m.

Type: Fishing. MMSI: 273529800.

Date/timePositionNaut miles runAvg speedWind from/ knotsBaromVisibWave heightAir tempDewpointWater temp
2014-Aug-19 19:33N 66°02' W 002°33'3 3.0
2014-Aug-19 18:30N 66°05' W 002°33'4 4.7
2014-Aug-19 17:33N 66°10' W 002°33'8 8.0
2014-Aug-19 16:33N 66°02' W 002°30'1 0.8
2014-Aug-19 15:33N 66°01' W 002°28'5 4.4
2014-Aug-19 14:30N 66°06' W 002°28'5 5.2
2014-Aug-19 13:33N 66°01' W 002°29'8 8.2
2014-Aug-19 12:33N 65°53' W 002°30'4 4.1
2014-Aug-19 11:33N 65°49' W 002°27'3 2.9
2014-Aug-19 10:30N 65°51' W 002°21'4 4.4
2014-Aug-19 09:33N 65°54' W 002°16'5 4.6
2014-Aug-19 08:30N 65°59' W 002°16'0 0.3
2014-Aug-19 07:30N 65°59' W 002°17'6 6.3
2014-Aug-19 06:33N 65°53' W 002°15'9 8.6
2014-Aug-19 05:33N 65°45' W 002°16'8 8.1
2014-Aug-19 04:33N 65°37' W 002°16'1 0.9
2014-Aug-19 03:33N 65°37' W 002°15'4 4.4
2014-Aug-19 02:33N 65°42' W 002°12'3 2.6
2014-Aug-19 01:33N 65°44' W 002°12'9 9.2
2014-Aug-19 00:33N 65°35' W 002°15'1010.3
2014-Aug-18 23:33N 65°25' W 002°20'6 6.0
2014-Aug-18 22:33N 65°20' W 002°13'4 3.8
2014-Aug-18 21:27N 65°20' W 002°03'5 4.8
2014-Aug-18 20:27N 65°22' W 001°53'5 4.7
2014-Aug-18 19:27N 65°26' W 001°48'5 4.5
2014-Aug-18 18:24N 65°30' W 001°42'4 4.6
2014-Aug-18 17:33N 65°34' W 001°38'4 3.6
2014-Aug-18 16:33N 65°30' W 001°40'6 6.5
2014-Aug-18 15:33N 65°24' W 001°45'1 1.2
2014-Aug-18 14:33N 65°25' W 001°47'4 3.9
2014-Aug-18 13:33N 65°27' W 001°40'4 4.3
2014-Aug-18 12:33N 65°31' W 001°35'4 4.3
2014-Aug-18 11:33N 65°35' W 001°30'5 5.2
2014-Aug-18 10:33N 65°30' W 001°31'8 7.7
2014-Aug-18 09:30N 65°22' W 001°29'2 2.1
2014-Aug-18 08:33N 65°24' W 001°27'4 4.4
2014-Aug-18 07:33N 65°28' W 001°22'4 4.5
2014-Aug-18 06:33N 65°32' W 001°21'4 4.4
2014-Aug-18 05:33N 65°35' W 001°13'5 4.5
2014-Aug-18 04:33N 65°38' W 001°04'4 3.9
2014-Aug-18 03:33N 65°42' W 001°02'7 7.4
2014-Aug-18 02:33N 65°37' W 000°47'2 2.4
2014-Aug-18 01:33N 65°35' W 000°44'5 4.3
2014-Aug-18 00:30N 65°39' W 000°37'20 3.3
2014-Aug-17 18:30N 65°58' W 000°22'250 5.6
2014-Aug-15 22:04N 62°48' W 006°38'713.6
2014-Aug-15 21:33N 62°42' W 006°42'1413.8
2014-Aug-15 20:34N 62°28' W 006°50'1212.2
2014-Aug-15 19:33N 62°16' W 006°46'2 2.5
2014-Aug-15 18:33N 62°14' W 006°48'0 0.0
2014-Aug-15 17:33N 62°14' W 006°48'0 0.0
2014-Aug-15 16:33N 62°14' W 006°48'0 0.4
2014-Aug-15 15:33N 62°14' W 006°47'3 2.7
2014-Aug-15 14:33N 62°13' W 006°42'6 6.0
2014-Aug-15 13:32N 62°08' W 006°34'6 5.7
2014-Aug-15 12:33N 62°03' W 006°37'5 5.1
2014-Aug-15 11:33N 62°07' W 006°45'0 0.4
2014-Aug-15 10:32N 62°07' W 006°44'0 0.0
2014-Aug-15 09:32N 62°07' W 006°44'0 0.0
2014-Aug-15 08:32N 62°07' W 006°44'0 0.0
2014-Aug-15 07:32N 62°07' W 006°44'0 0.0
2014-Aug-15 06:32N 62°07' W 006°44'0 0.0
2014-Aug-15 05:32N 62°07' W 006°44'0 0.0
2014-Aug-15 04:32N 62°07' W 006°44'0 0.0
2014-Aug-15 03:32N 62°07' W 006°44'0 0.0
2014-Aug-15 02:32N 62°07' W 006°44'0 0.0
2014-Aug-15 01:32N 62°07' W 006°44'0 0.0
2014-Aug-15 00:32N 62°07' W 006°44'0 0.0
2014-Aug-14 23:32N 62°07' W 006°44'0 0.0
2014-Aug-14 22:32N 62°07' W 006°44'0 0.0
2014-Aug-14 21:26N 62°07' W 006°44'0 0.0
2014-Aug-14 20:32N 62°07' W 006°44'0 0.0
2014-Aug-14 19:32N 62°07' W 006°44'0 0.0
2014-Aug-14 18:32N 62°07' W 006°44'0 0.0
2014-Aug-14 17:32N 62°07' W 006°44'0 0.0
2014-Aug-14 16:29N 62°07' W 006°44'0 0.0
2014-Aug-14 15:32N 62°07' W 006°44'0 0.0
2014-Aug-14 14:32N 62°07' W 006°44'0 0.0
2014-Aug-14 13:32N 62°07' W 006°44'0 0.0
2014-Aug-14 12:32N 62°07' W 006°44'0 0.0
2014-Aug-14 11:32N 62°07' W 006°44'0 0.4
2014-Aug-14 10:32N 62°07' W 006°44'4 4.5
2014-Aug-14 09:34N 62°03' W 006°40'6 6.4
2014-Aug-14 08:33N 62°09' W 006°34'5 4.8
2014-Aug-14 07:33N 62°13' W 006°39'4 4.2
2014-Aug-14 06:33N 62°14' W 006°48'0 0.1
2014-Aug-14 05:33N 62°14' W 006°48'0 0.0
2014-Aug-14 04:33N 62°14' W 006°48'0 0.0
2014-Aug-14 03:33N 62°14' W 006°48'0 0.0
2014-Aug-14 02:33N 62°14' W 006°48'0 0.0
2014-Aug-14 01:30N 62°14' W 006°48'0 0.0
2014-Aug-14 00:33N 62°14' W 006°48'0 0.0
2014-Aug-13 23:33N 62°14' W 006°48'0 0.0
2014-Aug-13 22:33N 62°14' W 006°48'0 0.0
2014-Aug-13 21:33N 62°14' W 006°48'0 0.0
2014-Aug-13 20:33N 62°14' W 006°48'0 0.0
2014-Aug-13 19:33N 62°14' W 006°48'0 0.0
2014-Aug-13 18:33N 62°14' W 006°48'0 0.0
2014-Aug-13 17:33N 62°14' W 006°48'0 0.0
2014-Aug-13 16:33N 62°14' W 006°48'5 4.8
2014-Aug-13 15:33N 62°13' W 006°38'9 9.2
2014-Aug-13 14:34N 62°05' W 006°28'6 5.7
2014-Aug-13 13:33N 62°03' W 006°39'7 6.9
2014-Aug-13 12:33N 62°09' W 006°46'1 1.0
2014-Aug-13 11:33N 62°10' W 006°47'0 0.0
2014-Aug-13 10:33N 62°10' W 006°47'0 0.0
2014-Aug-13 09:33N 62°10' W 006°47'0 0.0
2014-Aug-13 08:33N 62°10' W 006°47'0 0.0
2014-Aug-13 07:33N 62°10' W 006°47'0 0.0
2014-Aug-13 06:33N 62°10' W 006°47'0 0.0
2014-Aug-13 05:33N 62°10' W 006°47'0 0.0
2014-Aug-13 04:33N 62°10' W 006°47'0 0.0
2014-Aug-13 03:33N 62°10' W 006°47'0 0.0
2014-Aug-13 02:33N 62°10' W 006°47'0 0.0
2014-Aug-13 01:33N 62°10' W 006°47'0 0.0
2014-Aug-13 00:33N 62°10' W 006°47'0 0.0
2014-Aug-12 23:33N 62°10' W 006°47'0 0.0
2014-Aug-12 22:33N 62°10' W 006°47'0 0.0
2014-Aug-12 21:33N 62°10' W 006°47'0 0.0
2014-Aug-12 20:33N 62°10' W 006°47'0 0.0
2014-Aug-12 19:33N 62°10' W 006°47'0 0.0
2014-Aug-12 18:33N 62°10' W 006°47'0 0.0
2014-Aug-12 17:33N 62°10' W 006°47'0 0.0
2014-Aug-12 16:33N 62°10' W 006°47'0 0.0
2014-Aug-12 15:33N 62°10' W 006°47'0 0.0
2014-Aug-12 14:33N 62°10' W 006°47'0 0.0
2014-Aug-12 13:32N 62°10' W 006°47'0 0.0
2014-Aug-12 12:32N 62°10' W 006°47'0 0.0
2014-Aug-12 11:32N 62°10' W 006°47'0 0.0
2014-Aug-12 10:32N 62°10' W 006°47'0 0.0
2014-Aug-12 09:32N 62°10' W 006°47'0 0.0
2014-Aug-12 08:26N 62°10' W 006°47'1 1.2
2014-Aug-12 07:33N 62°09' W 006°46'3 2.7
2014-Aug-12 06:34N 62°06' W 006°45'4 3.7
2014-Aug-12 05:33N 62°03' W 006°43'5 4.7
2014-Aug-12 04:34N 61°58' W 006°42'5 4.8
2014-Aug-12 03:33N 61°54' W 006°37'8 7.8
2014-Aug-12 02:34N 62°00' W 006°28'9 8.7
2014-Aug-12 01:33N 62°08' W 006°18'9 9.0
2014-Aug-12 00:34N 62°16' W 006°08'  

Dump ship's entire track history